createdAt,value
2022-11-21T00:01:35.810Z,1.20
2022-11-21T00:04:03.333Z,1.21
2022-11-21T00:06:31.164Z,1.22
2022-11-21T00:08:58.721Z,1.23
2022-11-21T00:11:26.280Z,1.23
2022-11-21T00:13:53.904Z,1.24
2022-11-21T00:16:22.763Z,1.22
2022-11-21T00:18:51.094Z,1.23
2022-11-21T00:21:21.032Z,1.23
2022-11-21T00:23:49.429Z,1.22
2022-11-21T00:26:18.058Z,1.23
2022-11-21T00:28:46.577Z,1.24
2022-11-21T00:31:25.116Z,1.24
2022-11-21T00:33:52.701Z,1.21
2022-11-21T00:36:20.236Z,1.21
2022-11-21T00:38:48.491Z,1.21
2022-11-21T00:41:16.165Z,1.20
2022-11-21T00:43:43.760Z,1.21
2022-11-21T00:46:12.123Z,1.20
2022-11-21T00:48:41.917Z,1.22
2022-11-21T00:51:09.743Z,1.22
2022-11-21T00:53:37.400Z,1.22
2022-11-21T00:56:05.336Z,1.21
2022-11-21T00:58:32.975Z,1.22
2022-11-21T01:01:06.119Z,1.23
2022-11-21T01:03:34.920Z,1.22
2022-11-21T01:06:06.780Z,1.24
2022-11-21T01:08:36.148Z,1.24
2022-11-21T01:11:05.208Z,1.24
2022-11-21T01:13:33.474Z,1.25
2022-11-21T01:16:04.657Z,1.25
2022-11-21T01:18:32.473Z,1.24
2022-11-21T01:21:00.819Z,1.25
2022-11-21T01:23:30.388Z,1.24
2022-11-21T01:26:02.588Z,1.24
2022-11-21T01:28:30.197Z,1.24
2022-11-21T01:31:04.549Z,1.24
2022-11-21T01:33:32.274Z,1.24
2022-11-21T01:36:07.254Z,1.25
2022-11-21T01:38:36.539Z,1.25
2022-11-21T01:41:04.651Z,1.24
2022-11-21T01:43:33.082Z,1.24
2022-11-21T01:46:02.111Z,1.22
2022-11-21T01:48:37.811Z,1.24
2022-11-21T01:51:11.509Z,1.22
2022-11-21T01:53:43.904Z,1.22
2022-11-21T01:56:11.856Z,1.22
2022-11-21T01:58:41.585Z,1.21
2022-11-21T02:01:10.069Z,1.20
2022-11-21T02:03:39.649Z,1.21
2022-11-21T02:06:10.788Z,1.22
2022-11-21T02:08:41.638Z,1.22
2022-11-21T02:11:16.214Z,1.22
2022-11-21T02:13:44.107Z,1.21
2022-11-21T02:16:14.112Z,1.21
2022-11-21T02:18:42.827Z,1.22
2022-11-21T02:21:18.871Z,1.23
2022-11-21T02:23:56.344Z,1.23
2022-11-21T02:26:30.041Z,1.22
2022-11-21T02:28:59.226Z,1.21
2022-11-21T02:31:27.593Z,1.21
2022-11-21T02:33:55.117Z,1.21
2022-11-21T02:36:36.241Z,1.20
2022-11-21T02:39:04.753Z,1.19
2022-11-21T02:41:36.235Z,1.21
2022-11-21T02:44:08.089Z,1.22
2022-11-21T02:46:36.109Z,1.20
2022-11-21T02:49:09.170Z,1.21
2022-11-21T02:51:37.115Z,1.22
2022-11-21T02:54:05.033Z,1.21
2022-11-21T02:56:34.489Z,1.22
2022-11-21T02:59:04.525Z,1.21
2022-11-21T03:01:33.132Z,1.20
2022-11-21T03:04:02.060Z,1.22
2022-11-21T03:06:30.113Z,1.20
2022-11-21T03:08:59.037Z,1.21
2022-11-21T03:11:27.113Z,1.20
2022-11-21T03:13:56.753Z,1.21
2022-11-21T03:16:24.558Z,1.22
2022-11-21T03:18:52.137Z,1.22
2022-11-21T03:21:20.462Z,1.22
2022-11-21T03:23:50.055Z,1.23
2022-11-21T03:26:23.035Z,1.24
2022-11-21T03:31:45.814Z,1.24
2022-11-21T03:34:14.382Z,1.25
2022-11-21T03:36:42.039Z,1.25
2022-11-21T03:39:10.104Z,1.27
2022-11-21T03:41:37.689Z,1.24
2022-11-21T03:44:07.695Z,1.24
2022-11-21T03:46:37.277Z,1.26
2022-11-21T03:49:07.195Z,1.25
2022-11-21T03:51:36.081Z,1.24
2022-11-21T03:54:06.120Z,1.24
2022-11-21T03:56:34.092Z,1.25
2022-11-21T03:59:02.130Z,1.25
2022-11-21T04:01:35.165Z,1.24
2022-11-21T04:04:06.878Z,1.25
2022-11-21T04:06:35.053Z,1.24
2022-11-21T04:09:03.545Z,1.25
2022-11-21T04:11:32.129Z,1.24
2022-11-21T04:14:00.417Z,1.24
2022-11-21T04:16:27.987Z,1.23
2022-11-21T04:18:56.076Z,1.22
2022-11-21T04:21:25.130Z,1.23
2022-11-21T04:23:52.823Z,1.23
2022-11-21T04:26:20.374Z,1.23
2022-11-21T04:28:47.958Z,1.22
2022-11-21T04:31:15.516Z,1.20
2022-11-21T04:33:44.046Z,1.20
2022-11-21T04:36:11.592Z,1.19
2022-11-21T04:38:40.465Z,1.19
2022-11-21T04:41:08.105Z,1.19
2022-11-21T04:43:35.600Z,1.18
2022-11-21T04:46:05.135Z,1.16
2022-11-21T04:48:33.481Z,1.17
2022-11-21T04:51:01.039Z,1.17
2022-11-21T04:53:29.057Z,1.17
2022-11-21T04:55:57.936Z,1.18
2022-11-21T04:58:28.077Z,1.18
2022-11-21T05:00:55.765Z,1.18
2022-11-21T05:03:24.245Z,1.17
2022-11-21T05:05:52.445Z,1.17
2022-11-21T05:08:20.136Z,1.16
2022-11-21T05:11:05.198Z,1.18
2022-11-21T05:13:35.108Z,1.16
2022-11-21T05:16:02.719Z,1.15
2022-11-21T05:18:30.507Z,1.13
2022-11-21T05:20:58.485Z,1.11
2022-11-21T05:23:27.438Z,1.10
2022-11-21T05:25:55.121Z,1.07
2022-11-21T05:28:22.736Z,1.05
2022-11-21T05:30:51.632Z,1.03
2022-11-21T05:33:21.036Z,1.00
2022-11-21T05:35:48.603Z,0.97
2022-11-21T05:38:17.124Z,0.94
2022-11-21T05:40:46.449Z,0.92
2022-11-21T05:43:31.987Z,0.91
2022-11-21T05:46:00.865Z,0.89
2022-11-21T05:48:29.083Z,0.89
2022-11-21T05:50:56.632Z,0.88
2022-11-21T05:53:25.058Z,0.89
2022-11-21T05:55:53.093Z,0.89
2022-11-21T05:58:20.656Z,0.89
2022-11-21T06:00:48.371Z,0.89
2022-11-21T06:03:28.242Z,0.89
2022-11-21T06:06:05.069Z,0.90
2022-11-21T06:08:35.191Z,0.90
2022-11-21T06:11:03.726Z,0.90
2022-11-21T06:13:33.735Z,0.91
2022-11-21T06:16:05.478Z,0.91
2022-11-21T06:18:36.263Z,0.91
2022-11-21T06:21:05.423Z,0.91
2022-11-21T06:23:33.337Z,0.92
2022-11-21T06:26:04.127Z,0.92
2022-11-21T06:28:34.527Z,0.95
2022-11-21T06:31:06.127Z,0.95
2022-11-21T06:33:36.366Z,0.96
2022-11-21T06:36:05.125Z,0.97
2022-11-21T06:38:34.072Z,0.99
2022-11-21T06:41:06.396Z,0.99
2022-11-21T06:43:34.457Z,1.00
2022-11-21T06:46:03.241Z,1.00
2022-11-21T06:48:31.758Z,1.00
2022-11-21T06:51:05.220Z,1.02
2022-11-21T06:53:33.877Z,1.02
2022-11-21T06:56:01.880Z,1.03
2022-11-21T06:58:30.039Z,1.03
2022-11-21T07:00:58.104Z,1.05
2022-11-21T07:03:25.735Z,1.06
2022-11-21T07:05:58.632Z,1.06
2022-11-21T07:09:05.056Z,1.07
2022-11-21T07:11:41.045Z,1.08
2022-11-21T07:14:09.400Z,1.09
2022-11-21T07:16:37.393Z,1.09
2022-11-21T07:19:05.585Z,1.09
2022-11-21T07:21:35.053Z,1.10
2022-11-21T07:24:04.180Z,1.11
2022-11-21T07:26:31.749Z,1.13
2022-11-21T07:28:59.621Z,1.12
2022-11-21T07:31:28.147Z,1.12
2022-11-21T07:33:55.704Z,1.14
2022-11-21T07:36:23.286Z,1.15
2022-11-21T07:38:51.060Z,1.15
2022-11-21T07:41:20.073Z,1.16
2022-11-21T07:43:48.493Z,1.16
2022-11-21T07:46:17.031Z,1.17
2022-11-21T07:48:44.665Z,1.18
2022-11-21T07:51:12.265Z,1.19
2022-11-21T07:53:39.817Z,1.18
2022-11-21T07:56:09.447Z,1.19
2022-11-21T07:58:38.884Z,1.20
2022-11-21T08:01:08.033Z,1.21
2022-11-21T08:03:37.057Z,1.23
2022-11-21T08:06:06.009Z,1.25
2022-11-21T08:08:34.429Z,1.27
2022-11-21T08:11:05.890Z,1.29
2022-11-21T08:13:38.062Z,1.28
2022-11-21T08:16:09.798Z,1.29
2022-11-21T08:18:38.149Z,1.32
2022-11-21T08:21:06.500Z,1.31
2022-11-21T08:23:34.264Z,1.33
2022-11-21T08:26:03.023Z,1.34
2022-11-21T08:28:35.471Z,1.32
2022-11-21T08:31:04.634Z,1.32
2022-11-21T08:33:34.128Z,1.33
2022-11-21T08:36:06.075Z,1.32
2022-11-21T08:38:33.857Z,1.34
2022-11-21T08:41:18.980Z,1.34
2022-11-21T08:43:47.103Z,1.34
2022-11-21T08:49:09.053Z,1.35
2022-11-21T08:51:37.143Z,1.38
2022-11-21T08:54:05.442Z,1.41
2022-11-21T08:56:32.985Z,1.45
2022-11-21T08:59:03.073Z,1.49
2022-11-21T09:01:33.725Z,1.50
2022-11-21T09:04:03.035Z,1.53
2022-11-21T09:06:31.984Z,1.55
2022-11-21T09:09:00.135Z,1.57
2022-11-21T09:11:27.708Z,1.61
2022-11-21T09:14:14.055Z,1.65
2022-11-21T09:17:02.230Z,1.69
2022-11-21T09:19:30.781Z,1.72
2022-11-21T09:22:04.016Z,1.76
2022-11-21T09:24:31.662Z,1.80
2022-11-21T09:27:00.551Z,1.82
2022-11-21T09:29:28.256Z,1.84
2022-11-21T09:31:56.027Z,1.87
2022-11-21T09:34:25.059Z,1.91
2022-11-21T09:36:53.554Z,1.94
2022-11-21T09:39:22.575Z,1.99
2022-11-21T09:42:04.214Z,2.02
2022-11-21T09:44:47.340Z,2.07
2022-11-21T09:47:23.773Z,2.08
2022-11-21T09:49:57.737Z,2.09
2022-11-21T09:52:31.786Z,2.12
2022-11-21T09:55:05.610Z,2.17
2022-11-21T09:57:36.097Z,2.20
2022-11-21T10:00:23.018Z,2.23
2022-11-21T10:02:55.058Z,2.25
2022-11-21T10:05:31.455Z,2.28
2022-11-21T10:08:06.878Z,2.33
2022-11-21T10:10:51.551Z,2.37
2022-11-21T10:13:28.925Z,2.40
2022-11-21T10:16:02.822Z,2.42
2022-11-21T10:18:57.095Z,2.48
2022-11-21T10:21:44.102Z,2.50
2022-11-21T10:24:34.932Z,2.51
2022-11-21T10:27:08.773Z,2.47
2022-11-21T10:29:40.942Z,2.47
2022-11-21T10:32:12.316Z,2.50
2022-11-21T10:34:41.740Z,2.54
2022-11-21T10:37:16.498Z,2.56
2022-11-21T10:39:47.409Z,2.52
2022-11-21T10:42:31.150Z,2.56
2022-11-21T10:45:19.802Z,2.61
2022-11-21T10:47:49.109Z,2.61
2022-11-21T10:50:29.442Z,2.65
2022-11-21T10:53:26.381Z,2.65
2022-11-21T10:56:02.062Z,2.71
2022-11-21T10:58:41.169Z,2.77
2022-11-21T11:01:21.101Z,2.80
2022-11-21T11:04:26.866Z,2.86
2022-11-21T11:06:54.924Z,2.88
2022-11-21T11:09:28.112Z,2.95
2022-11-21T11:12:47.036Z,3.02
2022-11-21T11:15:26.117Z,3.11
2022-11-21T11:17:57.485Z,3.18
2022-11-21T11:20:41.120Z,3.24
2022-11-21T11:23:25.092Z,3.35
2022-11-21T11:25:54.297Z,3.42
2022-11-21T11:28:23.908Z,3.42
2022-11-21T11:30:55.147Z,3.44
2022-11-21T11:33:35.855Z,3.47
2022-11-21T11:36:17.056Z,3.48
2022-11-21T11:38:49.271Z,3.50
2022-11-21T11:42:00.137Z,3.53
2022-11-21T11:44:55.978Z,3.56
2022-11-21T11:47:32.453Z,3.60
2022-11-21T11:50:13.559Z,3.64
2022-11-21T11:52:51.467Z,3.65
2022-11-21T11:55:25.357Z,3.69
2022-11-21T11:57:58.112Z,3.72
2022-11-21T12:00:39.468Z,3.77
2022-11-21T12:03:39.262Z,3.80
2022-11-21T12:06:16.058Z,3.84
2022-11-21T12:08:52.469Z,3.86
2022-11-21T12:11:51.794Z,3.88
2022-11-21T12:14:53.150Z,3.89
2022-11-21T12:17:27.058Z,3.91
2022-11-21T12:20:01.009Z,3.92
2022-11-21T12:22:28.638Z,3.95
2022-11-21T12:25:21.053Z,4.01
2022-11-21T12:27:54.404Z,3.99
2022-11-21T12:30:57.054Z,4.01
2022-11-21T12:33:25.302Z,4.08
2022-11-21T12:36:18.928Z,4.07
2022-11-21T12:39:18.107Z,4.10
2022-11-21T12:42:11.477Z,4.10
2022-11-21T12:44:56.104Z,4.11
2022-11-21T12:48:09.157Z,4.07
2022-11-21T12:51:06.592Z,4.04
2022-11-21T12:54:03.077Z,4.09
2022-11-21T12:56:42.168Z,4.13
2022-11-21T12:59:13.873Z,4.16
2022-11-21T13:01:51.547Z,4.19
2022-11-21T13:04:24.844Z,4.19
2022-11-21T13:06:55.120Z,4.22
2022-11-21T13:09:27.498Z,4.25
2022-11-21T13:12:04.210Z,4.35
2022-11-21T13:14:41.570Z,4.42
2022-11-21T13:17:23.121Z,4.47
2022-11-21T13:22:59.895Z,4.57
2022-11-21T13:25:47.370Z,4.60
2022-11-21T13:28:33.255Z,4.61
2022-11-21T13:31:03.377Z,4.65
2022-11-21T13:33:56.400Z,4.65
2022-11-21T13:36:43.344Z,4.64
2022-11-21T13:39:35.816Z,4.67
2022-11-21T13:42:40.376Z,4.67
2022-11-21T13:45:39.352Z,4.68
2022-11-21T13:48:28.073Z,4.71
2022-11-21T13:51:24.077Z,4.73
2022-11-21T13:54:36.042Z,4.71
2022-11-21T13:57:14.887Z,4.71
2022-11-21T13:59:59.845Z,4.71
2022-11-21T14:02:50.048Z,4.72
2022-11-21T14:05:32.982Z,4.74
2022-11-21T14:08:19.254Z,4.76
2022-11-21T14:10:48.265Z,4.77
2022-11-21T14:13:24.054Z,4.78
2022-11-21T14:16:06.851Z,4.78
2022-11-21T14:18:36.882Z,4.79
2022-11-21T14:21:08.172Z,4.80
2022-11-21T14:23:37.606Z,4.81
2022-11-21T14:26:12.533Z,4.82
2022-11-21T14:28:40.172Z,4.82
2022-11-21T14:31:12.328Z,4.83
2022-11-21T14:33:42.027Z,4.83
2022-11-21T14:36:14.259Z,4.83
2022-11-21T14:38:44.507Z,4.83
2022-11-21T14:41:28.194Z,4.85
2022-11-21T14:44:20.130Z,4.84
2022-11-21T14:46:51.130Z,4.84
2022-11-21T14:49:24.115Z,4.85
2022-11-21T14:51:52.971Z,4.83
2022-11-21T14:54:23.015Z,4.83
2022-11-21T14:56:58.352Z,4.82
2022-11-21T14:59:28.304Z,4.83
2022-11-21T15:02:01.106Z,4.83
2022-11-21T15:04:33.984Z,4.81
2022-11-21T15:07:03.389Z,4.82
2022-11-21T15:12:27.961Z,4.80
2022-11-21T15:14:59.747Z,4.80
2022-11-21T15:17:29.913Z,4.78
2022-11-21T15:20:11.475Z,4.75
2022-11-21T15:22:42.100Z,4.72
2022-11-21T15:25:19.050Z,4.67
2022-11-21T15:27:52.012Z,4.62
2022-11-21T15:30:29.704Z,4.58
2022-11-21T15:33:07.328Z,4.57
2022-11-21T15:35:45.095Z,4.51
2022-11-21T15:38:32.084Z,4.51
2022-11-21T15:41:10.063Z,4.46
2022-11-21T15:43:43.151Z,4.41
2022-11-21T15:46:19.051Z,4.37
2022-11-21T15:48:51.054Z,4.32
2022-11-21T15:51:44.042Z,4.28
2022-11-21T15:54:12.081Z,4.27
2022-11-21T15:56:40.359Z,4.24
2022-11-21T15:59:10.033Z,4.22
2022-11-21T16:01:38.125Z,4.18
2022-11-21T16:04:09.238Z,4.14
2022-11-21T16:06:37.209Z,4.12
2022-11-21T16:09:07.149Z,4.07
2022-11-21T16:11:37.769Z,4.02
2022-11-21T16:14:07.486Z,3.98
2022-11-21T16:16:42.597Z,3.96
2022-11-21T16:19:15.075Z,3.90
2022-11-21T16:21:46.028Z,3.87
2022-11-21T16:24:14.535Z,3.83
2022-11-21T16:26:44.034Z,3.77
2022-11-21T16:29:13.037Z,3.74
2022-11-21T16:31:41.052Z,3.71
2022-11-21T16:34:09.553Z,3.68
2022-11-21T16:36:38.579Z,3.63
2022-11-21T16:39:11.167Z,3.60
2022-11-21T16:41:41.604Z,3.56
2022-11-21T16:44:13.423Z,3.52
2022-11-21T16:46:43.558Z,3.48
2022-11-21T16:49:11.143Z,3.46
2022-11-21T16:51:40.056Z,3.42
2022-11-21T16:54:09.459Z,3.38
2022-11-21T16:56:38.149Z,3.35
2022-11-21T16:59:05.788Z,3.31
2022-11-21T17:01:33.716Z,3.30
2022-11-21T17:04:01.313Z,3.25
2022-11-21T17:06:32.017Z,3.24
2022-11-21T17:09:02.586Z,3.21
2022-11-21T17:11:31.815Z,3.19
2022-11-21T17:14:01.641Z,3.17
2022-11-21T17:16:30.465Z,3.14
2022-11-21T17:19:02.131Z,3.13
2022-11-21T17:21:31.140Z,3.10
2022-11-21T17:23:59.502Z,3.07
2022-11-21T17:26:30.545Z,3.05
2022-11-21T17:28:59.633Z,3.02
2022-11-21T17:31:29.027Z,3.00
2022-11-21T17:33:57.017Z,2.96
2022-11-21T17:36:26.795Z,2.95
2022-11-21T17:38:55.485Z,2.91
2022-11-21T17:41:25.485Z,2.89
2022-11-21T17:43:56.822Z,2.87
2022-11-21T17:46:25.293Z,2.84
2022-11-21T17:48:57.485Z,2.82
2022-11-21T17:51:26.993Z,2.81
2022-11-21T17:53:54.944Z,2.80
2022-11-21T17:56:24.098Z,2.80
2022-11-21T17:58:53.045Z,2.80
2022-11-21T18:01:22.664Z,2.78
2022-11-21T18:03:57.044Z,2.78
2022-11-21T18:06:25.933Z,2.77
2022-11-21T18:08:53.817Z,2.76
2022-11-21T18:11:22.701Z,2.78
2022-11-21T18:13:51.474Z,2.76
2022-11-21T18:16:24.052Z,2.76
2022-11-21T18:18:52.185Z,2.76
2022-11-21T18:21:21.966Z,2.77
2022-11-21T18:23:50.359Z,2.77
2022-11-21T18:26:21.492Z,2.79
2022-11-21T18:29:01.721Z,2.78
2022-11-21T18:31:39.499Z,2.79
2022-11-21T18:34:07.558Z,2.79
2022-11-21T18:36:35.970Z,2.79
2022-11-21T18:39:08.898Z,2.79
2022-11-21T18:41:41.137Z,2.77
2022-11-21T18:44:10.208Z,2.78
2022-11-21T18:46:39.322Z,2.79
2022-11-21T18:49:08.439Z,2.78
2022-11-21T18:51:37.095Z,2.79
2022-11-21T18:54:08.104Z,2.80
2022-11-21T18:56:38.107Z,2.80
2022-11-21T18:59:06.841Z,2.80
2022-11-21T19:01:36.559Z,2.80
2022-11-21T19:04:06.270Z,2.81
2022-11-21T19:06:33.973Z,2.80
2022-11-21T19:09:02.693Z,2.81
2022-11-21T19:11:31.215Z,2.82
2022-11-21T19:14:00.241Z,2.83
2022-11-21T19:16:30.834Z,2.85
2022-11-21T19:21:48.003Z,2.87
2022-11-21T19:24:16.329Z,2.87
2022-11-21T19:26:44.061Z,2.88
2022-11-21T19:29:12.699Z,2.86
2022-11-21T19:31:45.322Z,2.87
2022-11-21T19:34:14.819Z,2.88
2022-11-21T19:36:42.935Z,2.89
2022-11-21T19:39:12.404Z,2.90
2022-11-21T19:41:41.251Z,2.90
2022-11-21T19:44:09.057Z,2.92
2022-11-21T19:46:38.163Z,2.89
2022-11-21T19:49:07.128Z,2.88
2022-11-21T19:51:36.652Z,2.90
2022-11-21T19:54:05.015Z,2.89
2022-11-21T19:56:35.064Z,2.89
2022-11-21T19:59:03.033Z,2.89
2022-11-21T20:01:33.222Z,2.90
2022-11-21T20:04:03.106Z,2.91
2022-11-21T20:06:32.969Z,2.91
2022-11-21T20:09:03.432Z,2.91
2022-11-21T20:11:34.041Z,2.91
2022-11-21T20:14:03.485Z,2.93
2022-11-21T20:16:32.848Z,2.93
2022-11-21T20:19:02.508Z,2.96
2022-11-21T20:21:32.011Z,2.98
2022-11-21T20:23:59.915Z,2.95
2022-11-21T20:26:27.805Z,2.97
2022-11-21T20:28:57.067Z,2.98
2022-11-21T20:31:29.839Z,2.97
2022-11-21T20:34:00.667Z,3.01
2022-11-21T20:36:34.121Z,3.02
2022-11-21T20:39:04.844Z,3.01
2022-11-21T20:41:34.572Z,3.04
2022-11-21T20:46:53.941Z,3.05
2022-11-21T20:49:21.584Z,3.06
2022-11-21T20:54:38.559Z,3.06
2022-11-21T20:57:10.425Z,3.09
2022-11-21T20:59:42.004Z,3.11
2022-11-21T21:02:13.724Z,3.10
2022-11-21T21:04:41.542Z,3.11
2022-11-21T21:07:09.243Z,3.12
2022-11-21T21:09:37.001Z,3.13
2022-11-21T21:12:05.605Z,3.14
2022-11-21T21:14:34.269Z,3.14
2022-11-21T21:17:01.961Z,3.15
2022-11-21T21:19:31.336Z,3.16
2022-11-21T21:21:59.210Z,3.18
2022-11-21T21:24:27.645Z,3.18
2022-11-21T21:26:55.171Z,3.17
2022-11-21T21:29:23.441Z,3.17
2022-11-21T21:31:52.660Z,3.18
2022-11-21T21:34:22.230Z,3.18
2022-11-21T21:36:51.871Z,3.20
2022-11-21T21:39:19.578Z,3.18
2022-11-21T21:41:48.058Z,3.19
2022-11-21T21:44:18.818Z,3.18
2022-11-21T21:46:46.725Z,3.18
2022-11-21T21:49:14.520Z,3.18
2022-11-21T21:51:42.245Z,3.21
2022-11-21T21:54:20.268Z,3.21
2022-11-21T21:56:48.292Z,3.20
2022-11-21T21:59:18.296Z,3.22
2022-11-21T22:01:46.115Z,3.22
2022-11-21T22:04:13.905Z,3.23
2022-11-21T22:06:41.501Z,3.25
2022-11-21T22:09:09.488Z,3.26
2022-11-21T22:11:39.405Z,3.26
2022-11-21T22:14:09.122Z,3.27
2022-11-21T22:16:37.388Z,3.30
2022-11-21T22:19:05.657Z,3.30
2022-11-21T22:21:36.570Z,3.31
2022-11-21T22:26:56.061Z,3.33
2022-11-21T22:29:23.758Z,3.34
2022-11-21T22:31:51.727Z,3.35
2022-11-21T22:34:19.345Z,3.38
2022-11-21T22:36:47.488Z,3.38
2022-11-21T22:39:15.249Z,3.41
2022-11-21T22:41:42.918Z,3.42
2022-11-21T22:44:11.909Z,3.45
2022-11-21T22:46:39.466Z,3.46
2022-11-21T22:49:07.073Z,3.46
2022-11-21T22:51:34.723Z,3.48
2022-11-21T22:54:02.357Z,3.48
2022-11-21T22:56:30.497Z,3.51
2022-11-21T22:58:58.000Z,3.52
2022-11-21T23:01:27.518Z,3.53
2022-11-21T23:03:56.384Z,3.55
2022-11-21T23:06:25.753Z,3.55
2022-11-21T23:08:53.605Z,3.56
2022-11-21T23:11:23.476Z,3.57
2022-11-21T23:13:51.936Z,3.57
2022-11-21T23:16:20.102Z,3.58
2022-11-21T23:18:49.745Z,3.59
2022-11-21T23:21:17.405Z,3.60
2022-11-21T23:23:45.563Z,3.60
2022-11-21T23:26:13.118Z,3.61
2022-11-21T23:28:40.787Z,3.62
2022-11-21T23:31:08.327Z,3.63
2022-11-21T23:33:35.960Z,3.62
2022-11-21T23:36:05.040Z,3.63
2022-11-21T23:38:32.841Z,3.63
2022-11-21T23:41:00.397Z,3.66
2022-11-21T23:43:28.083Z,3.67
2022-11-21T23:45:56.029Z,3.66
2022-11-21T23:48:24.436Z,3.69
2022-11-21T23:50:52.169Z,3.70
2022-11-21T23:53:22.556Z,3.72
2022-11-21T23:55:50.776Z,3.74
2022-11-21T23:58:18.321Z,3.77
